Time;durP1;ratioP1;P1;durP2;ratioP2;P2;SDS_P1;SDS_P2;PMS_P1;PMS_P2;Temp;Humidity;BMP_temperature;BMP_pressure;BME280_temperature;BME280_humidity;BME280_pressure;Samples;Min_cycle;Max_cycle;Signal;HPM_P1;HPM_P2
2022/11/20 00:01:24;;;;;;;7.97;5.18;;;18.00;57.10;;;;;;4960809;28;20229;-70
2022/11/20 00:03:52;;;;;;;6.43;5.00;;;18.00;56.90;;;;;;4960764;28;20579;-70
2022/11/20 00:06:19;;;;;;;7.72;5.28;;;18.00;57.00;;;;;;4960728;28;20209;-69
2022/11/20 00:08:46;;;;;;;7.63;5.13;;;17.90;56.90;;;;;;4960978;28;20288;-69
2022/11/20 00:11:14;;;;;;;9.20;5.15;;;17.90;57.10;;;;;;4960498;28;20222;-69
2022/11/20 00:13:41;;;;;;;8.93;5.07;;;17.90;57.20;;;;;;4960511;28;20244;-69
2022/11/20 00:16:09;;;;;;;35.70;13.48;;;17.90;57.20;;;;;;4960824;28;20204;-69
2022/11/20 00:18:38;;;;;;;13.68;7.35;;;17.90;57.30;;;;;;4960320;28;20195;-69
2022/11/20 00:21:05;;;;;;;14.98;8.18;;;17.90;57.80;;;;;;4960464;28;20226;-69
2022/11/20 00:23:32;;;;;;;15.07;7.65;;;17.90;57.40;;;;;;4960348;28;20206;-69
2022/11/20 00:26:03;;;;;;;14.10;7.40;;;17.90;57.60;;;;;;4959399;28;20217;-70
2022/11/20 00:28:30;;;;;;;17.17;7.38;;;17.80;57.60;;;;;;4960361;28;20292;-70
2022/11/20 00:31:02;;;;;;;12.77;7.22;;;17.80;57.10;;;;;;4960387;28;20312;-70
2022/11/20 00:33:29;;;;;;;10.90;6.93;;;17.80;57.10;;;;;;4965288;28;20388;-70
2022/11/20 00:36:03;;;;;;;10.10;6.40;;;17.80;57.10;;;;;;4978394;28;20245;-70
2022/11/20 00:38:31;;;;;;;9.70;6.47;;;17.70;56.90;;;;;;4961317;28;20277;-70
2022/11/20 00:40:58;;;;;;;11.82;6.53;;;17.70;56.80;;;;;;4960982;28;20224;-70
2022/11/20 00:43:25;;;;;;;10.18;6.32;;;17.60;56.80;;;;;;4980182;28;20198;-70
2022/11/20 00:45:57;;;;;;;9.98;5.90;;;17.60;56.70;;;;;;4960934;28;20665;-70
2022/11/20 00:48:24;;;;;;;12.40;6.28;;;17.60;56.70;;;;;;4960325;28;20210;-70
2022/11/20 00:50:52;;;;;;;9.10;5.63;;;17.50;56.80;;;;;;4960517;28;20218;-70
2022/11/20 00:53:20;;;;;;;9.25;5.63;;;17.50;56.80;;;;;;4960253;28;20220;-70
2022/11/20 00:55:54;;;;;;;10.85;5.65;;;17.50;56.80;;;;;;4961020;28;20208;-70
2022/11/20 00:58:21;;;;;;;8.38;5.53;;;17.50;56.90;;;;;;4960009;28;20197;-70
2022/11/20 01:00:49;;;;;;;10.23;5.82;;;17.50;56.90;;;;;;4959824;28;20304;-70
2022/11/20 01:03:17;;;;;;;8.48;5.43;;;17.50;56.90;;;;;;4960010;28;20202;-70
2022/11/20 01:05:44;;;;;;;7.88;5.18;;;17.40;56.80;;;;;;4959626;28;20202;-70
2022/11/20 01:08:11;;;;;;;7.45;4.88;;;17.40;56.70;;;;;;4959549;28;20760;-70
2022/11/20 01:10:40;;;;;;;7.75;4.97;;;17.40;56.60;;;;;;4959706;28;20318;-70
2022/11/20 01:15:51;;;;;;;8.93;5.22;;;17.30;56.70;;;;;;4959444;28;20190;-70
2022/11/20 01:18:18;;;;;;;7.30;4.63;;;17.40;56.80;;;;;;4976506;28;20193;-70
2022/11/20 01:20:45;;;;;;;9.90;5.22;;;17.30;56.70;;;;;;4959134;28;20234;-70
2022/11/20 01:23:12;;;;;;;8.27;5.10;;;17.30;56.70;;;;;;4960310;28;20263;-70
2022/11/20 01:25:40;;;;;;;8.43;4.80;;;17.30;56.70;;;;;;4943276;28;20545;-70
2022/11/20 01:28:08;;;;;;;7.05;4.57;;;17.30;56.70;;;;;;4959081;28;20218;-70
2022/11/20 01:30:35;;;;;;;6.82;4.20;;;17.30;56.70;;;;;;4959190;28;20225;-70
2022/11/20 01:33:02;;;;;;;7.90;4.20;;;17.30;56.70;;;;;;4958915;28;20697;-70
2022/11/20 01:35:29;;;;;;;5.80;4.05;;;17.30;56.70;;;;;;4959228;28;20202;-70
2022/11/20 01:37:56;;;;;;;6.72;4.20;;;17.20;56.60;;;;;;4958740;28;20194;-70
2022/11/20 01:40:23;;;;;;;9.13;4.15;;;17.20;56.70;;;;;;4958848;28;20205;-70
2022/11/20 01:46:18;;;;;;;5.68;4.10;;;17.20;56.60;;;;;;4958889;28;20720;-70
2022/11/20 01:48:50;;;;;;;6.93;4.00;;;17.20;56.60;;;;;;4958803;28;20222;-70
2022/11/20 01:51:20;;;;;;;6.43;4.20;;;17.20;56.60;;;;;;4959283;28;20221;-70
2022/11/20 01:53:47;;;;;;;5.70;3.75;;;17.20;56.70;;;;;;4958740;28;20194;-70
2022/11/20 01:56:15;;;;;;;5.50;4.40;;;17.20;57.20;;;;;;4958682;28;20204;-70
2022/11/20 01:58:46;;;;;;;6.63;4.13;;;17.20;56.60;;;;;;4958552;28;20229;-70
2022/11/20 02:01:13;;;;;;;5.85;4.28;;;17.20;56.60;;;;;;4959304;28;20591;-70
2022/11/20 02:03:40;;;;;;;6.25;3.90;;;17.10;56.50;;;;;;4975930;28;20190;-70
2022/11/20 02:06:11;;;;;;;5.03;3.85;;;17.10;56.50;;;;;;4958541;28;20213;-70
2022/11/20 02:08:39;;;;;;;5.72;3.85;;;17.10;56.50;;;;;;4975847;28;20544;-70
2022/11/20 02:11:05;;;;;;;5.20;3.75;;;17.10;56.70;;;;;;4959426;28;20222;-70
2022/11/20 02:13:43;;;;;;;8.23;4.10;;;17.10;56.50;;;;;;4958599;28;20306;-70
2022/11/20 02:16:18;;;;;;;5.85;3.88;;;17.10;56.50;;;;;;4976239;28;20253;-70
2022/11/20 02:18:45;;;;;;;6.55;3.97;;;17.10;57.10;;;;;;4975856;28;20213;-70
2022/11/20 02:21:31;;;;;;;5.32;3.60;;;17.10;56.70;;;;;;4958630;28;20222;-70
2022/11/20 02:24:05;;;;;;;5.95;3.55;;;17.00;56.50;;;;;;4958643;28;20197;-70
2022/11/20 02:26:36;;;;;;;4.65;3.75;;;17.10;56.50;;;;;;4958498;28;20205;-70
2022/11/20 02:29:03;;;;;;;6.45;3.72;;;17.00;56.70;;;;;;4976196;28;20206;-70
2022/11/20 02:31:35;;;;;;;5.35;3.83;;;17.00;56.70;;;;;;4958292;28;20321;-70
2022/11/20 02:34:03;;;;;;;5.35;3.63;;;17.00;56.60;;;;;;4958772;28;20194;-70
2022/11/20 02:36:30;;;;;;;5.55;3.55;;;17.00;56.70;;;;;;4958751;28;20206;-70
2022/11/20 02:38:57;;;;;;;4.88;3.72;;;17.00;56.80;;;;;;4976536;28;20183;-70
2022/11/20 02:41:33;;;;;;;5.80;3.40;;;17.00;56.70;;;;;;4958487;28;20228;-70
2022/11/20 02:44:00;;;;;;;4.20;3.10;;;17.00;56.70;;;;;;4958495;28;20197;-70
2022/11/20 02:46:27;;;;;;;4.70;3.50;;;17.00;56.70;;;;;;4958417;28;20535;-70
2022/11/20 02:48:54;;;;;;;6.30;3.80;;;17.00;57.30;;;;;;4958275;28;20293;-70
2022/11/20 02:51:21;;;;;;;4.78;3.40;;;17.00;56.70;;;;;;4958260;28;20605;-69
2022/11/20 02:53:48;;;;;;;3.53;3.05;;;17.00;56.60;;;;;;4975512;28;20229;-71
2022/11/20 02:56:16;;;;;;;5.53;3.20;;;16.90;56.70;;;;;;4958151;28;20194;-70
2022/11/20 02:58:44;;;;;;;4.80;3.38;;;16.90;56.60;;;;;;4958015;28;20198;-70
2022/11/20 03:01:11;;;;;;;4.70;3.28;;;16.90;56.50;;;;;;4957937;28;20229;-70
2022/11/20 03:03:38;;;;;;;3.80;2.83;;;16.90;56.70;;;;;;4958489;28;20194;-70
2022/11/20 03:06:06;;;;;;;4.25;3.40;;;16.90;56.50;;;;;;4959147;28;20232;-70
2022/11/20 03:08:33;;;;;;;3.70;3.10;;;16.90;56.70;;;;;;4958762;28;20222;-70
2022/11/20 03:11:04;;;;;;;4.85;3.10;;;16.90;56.70;;;;;;4958327;28;20249;-70
2022/11/20 03:13:32;;;;;;;5.78;3.10;;;16.90;56.60;;;;;;4977111;28;20193;-70
2022/11/20 03:16:09;;;;;;;4.40;3.03;;;16.90;56.80;;;;;;4958382;28;20212;-70
2022/11/20 03:18:36;;;;;;;4.18;3.20;;;16.90;56.80;;;;;;4958676;28;20202;-70
2022/11/20 03:21:03;;;;;;;4.07;3.00;;;16.80;56.60;;;;;;4943440;28;20218;-70
2022/11/20 03:23:31;;;;;;;3.92;3.17;;;16.80;56.70;;;;;;4958534;28;20202;-70
2022/11/20 03:26:09;;;;;;;4.57;3.15;;;16.90;57.00;;;;;;4958154;28;20202;-70
2022/11/20 03:28:36;;;;;;;4.55;3.10;;;16.80;56.80;;;;;;4974813;28;20296;-70
2022/11/20 03:31:08;;;;;;;4.55;3.17;;;16.80;56.90;;;;;;4957501;28;20273;-70
2022/11/20 03:33:35;;;;;;;4.43;3.25;;;16.80;56.70;;;;;;4957696;28;20197;-70
2022/11/20 03:36:03;;;;;;;5.10;3.15;;;16.80;56.80;;;;;;4957407;28;20667;-70
2022/11/20 03:38:31;;;;;;;4.40;3.03;;;16.80;56.80;;;;;;4957567;28;20252;-70
2022/11/20 03:41:01;;;;;;;3.55;2.78;;;16.80;56.80;;;;;;4957445;28;20759;-70
2022/11/20 03:43:29;;;;;;;3.38;3.08;;;16.80;56.70;;;;;;4957542;28;20198;-70
2022/11/20 03:45:56;;;;;;;4.70;3.15;;;16.80;56.80;;;;;;4974872;28;20256;-70
2022/11/20 03:48:24;;;;;;;4.10;3.28;;;16.80;56.60;;;;;;4957272;28;20218;-70
2022/11/20 03:50:51;;;;;;;4.05;2.65;;;16.80;56.60;;;;;;4957317;28;20215;-70
2022/11/20 03:53:18;;;;;;;3.88;3.08;;;16.80;56.50;;;;;;4957394;28;20198;-70
2022/11/20 03:55:45;;;;;;;3.67;2.78;;;16.80;56.60;;;;;;4957412;28;20198;-70
2022/11/20 03:58:14;;;;;;;3.78;2.65;;;16.80;56.70;;;;;;4974461;28;20182;-70
2022/11/20 04:00:41;;;;;;;3.25;2.90;;;16.70;56.30;;;;;;4957967;28;20697;-70
2022/11/20 04:03:08;;;;;;;5.18;3.13;;;16.70;56.20;;;;;;4961069;28;20198;-70
2022/11/20 04:05:36;;;;;;;3.47;2.72;;;16.70;56.20;;;;;;4962454;28;20208;-70
2022/11/20 04:08:04;;;;;;;4.40;2.80;;;16.70;56.20;;;;;;4945115;28;20228;-70
2022/11/20 04:10:31;;;;;;;4.55;3.15;;;16.70;56.20;;;;;;4960775;28;20210;-70
2022/11/20 04:12:58;;;;;;;3.15;2.75;;;16.70;56.20;;;;;;4960661;28;20293;-70
2022/11/20 04:15:25;;;;;;;4.15;3.17;;;16.70;56.20;;;;;;4960604;28;20221;-69
2022/11/20 04:17:52;;;;;;;3.53;2.80;;;16.70;56.20;;;;;;4960454;28;20194;-70
2022/11/20 04:20:20;;;;;;;4.30;2.83;;;16.70;56.50;;;;;;4960261;28;20226;-70
2022/11/20 04:22:48;;;;;;;4.80;2.85;;;16.70;56.30;;;;;;4960306;28;20205;-70
2022/11/20 04:25:15;;;;;;;3.80;2.65;;;16.70;56.20;;;;;;4960238;28;20253;-70
2022/11/20 04:27:42;;;;;;;3.28;2.80;;;16.70;56.20;;;;;;4960034;28;20213;-70
2022/11/20 04:30:10;;;;;;;3.15;2.50;;;16.70;56.20;;;;;;4960296;28;20194;-70
2022/11/20 04:32:37;;;;;;;3.20;2.72;;;16.70;56.50;;;;;;4960015;28;20298;-70
2022/11/20 04:35:05;;;;;;;2.75;2.53;;;16.70;56.20;;;;;;4960436;28;20654;-70
2022/11/20 04:37:32;;;;;;;4.03;2.72;;;16.70;56.90;;;;;;4960169;28;20198;-70
2022/11/20 04:40:01;;;;;;;3.25;2.70;;;16.70;57.00;;;;;;4960423;28;20198;-70
2022/11/20 04:42:30;;;;;;;2.70;2.50;;;16.70;57.10;;;;;;4961140;28;20222;-70
2022/11/20 04:44:57;;;;;;;3.42;2.67;;;16.80;57.00;;;;;;4960150;28;20292;-71
2022/11/20 04:47:24;;;;;;;3.20;2.55;;;16.80;56.70;;;;;;4960044;28;20568;-70
2022/11/20 04:49:52;;;;;;;3.00;2.70;;;16.90;56.70;;;;;;4960080;28;20703;-70
2022/11/20 04:52:19;;;;;;;3.33;2.58;;;16.90;56.40;;;;;;4944007;28;20777;-70
2022/11/20 04:54:46;;;;;;;2.78;2.58;;;16.90;56.40;;;;;;4960085;28;20209;-70
2022/11/20 04:57:16;;;;;;;2.90;2.60;;;17.00;56.20;;;;;;4960417;28;20199;-70
2022/11/20 04:59:43;;;;;;;3.03;2.78;;;17.00;56.00;;;;;;4977534;28;20190;-70
2022/11/20 05:02:11;;;;;;;2.67;2.35;;;17.00;55.90;;;;;;4944306;28;20253;-70
2022/11/20 05:04:38;;;;;;;4.80;2.80;;;17.00;55.70;;;;;;4960158;28;20190;-70
2022/11/20 05:07:05;;;;;;;3.22;2.53;;;17.00;55.80;;;;;;4960858;28;20212;-70
2022/11/20 05:09:32;;;;;;;3.00;2.70;;;17.10;55.70;;;;;;4960084;28;20229;-70
2022/11/20 05:11:59;;;;;;;2.78;2.50;;;17.00;55.40;;;;;;4959186;28;20225;-70
2022/11/20 05:14:28;;;;;;;3.03;2.70;;;17.00;55.40;;;;;;4960389;28;20198;-70
2022/11/20 05:16:55;;;;;;;2.92;2.40;;;17.00;55.40;;;;;;4959621;28;20293;-70
2022/11/20 05:19:22;;;;;;;2.80;2.42;;;17.00;55.40;;;;;;4959483;28;20206;-70
2022/11/20 05:21:49;;;;;;;3.28;2.55;;;17.00;55.60;;;;;;4959354;28;20312;-70
2022/11/20 05:24:16;;;;;;;2.75;2.53;;;17.00;55.50;;;;;;4959496;28;20193;-70
2022/11/20 05:26:43;;;;;;;2.92;2.33;;;17.00;55.50;;;;;;4959547;28;20663;-70
2022/11/20 05:29:12;;;;;;;2.97;2.20;;;17.00;55.40;;;;;;4959226;28;20224;-70
2022/11/20 05:31:41;;;;;;;3.28;2.50;;;17.00;55.60;;;;;;4976716;28;20210;-70
2022/11/20 05:34:08;;;;;;;2.90;2.47;;;17.10;55.50;;;;;;4959159;28;20202;-69
2022/11/20 05:36:36;;;;;;;2.97;2.13;;;17.10;55.20;;;;;;4959262;28;20198;-70
2022/11/20 05:39:03;;;;;;;2.90;2.40;;;17.20;55.60;;;;;;4959605;28;20281;-70
2022/11/20 05:41:29;;;;;;;3.58;2.30;;;17.20;55.60;;;;;;4976231;28;20720;-70
2022/11/20 05:43:57;;;;;;;2.75;2.33;;;17.20;55.30;;;;;;4959974;28;20194;-70
2022/11/20 05:46:24;;;;;;;3.42;2.40;;;17.20;54.90;;;;;;4958986;28;20210;-70
2022/11/20 05:48:53;;;;;;;3.08;2.47;;;17.20;55.20;;;;;;4958985;28;20237;-70
2022/11/20 05:51:20;;;;;;;2.78;2.20;;;17.20;55.10;;;;;;4958839;28;20228;-70
2022/11/20 05:53:48;;;;;;;2.72;2.28;;;17.20;55.00;;;;;;4959365;28;20280;-71
2022/11/20 05:56:16;;;;;;;2.75;2.45;;;17.30;55.00;;;;;;4958953;28;20194;-70
2022/11/20 05:58:43;;;;;;;2.55;2.20;;;17.30;55.00;;;;;;4959052;28;20205;-70
2022/11/20 06:01:12;;;;;;;2.75;2.25;;;17.30;55.00;;;;;;4958954;28;20298;-70
2022/11/20 06:03:39;;;;;;;2.50;2.30;;;17.30;55.20;;;;;;4976350;28;20201;-70
2022/11/20 06:06:08;;;;;;;3.17;2.35;;;17.30;54.90;;;;;;4959466;28;20194;-70
2022/11/20 06:08:36;;;;;;;3.33;2.22;;;17.30;54.90;;;;;;4959054;28;20214;-70
2022/11/20 06:11:06;;;;;;;3.38;2.00;;;17.30;54.90;;;;;;4958764;28;20217;-70
2022/11/20 06:13:33;;;;;;;2.55;2.13;;;17.30;55.00;;;;;;4958405;28;20201;-70
2022/11/20 06:16:00;;;;;;;2.00;1.80;;;17.40;55.10;;;;;;4958371;28;20197;-70
2022/11/20 06:18:28;;;;;;;2.30;2.03;;;17.40;54.90;;;;;;4958503;28;20205;-70
2022/11/20 06:21:01;;;;;;;2.50;2.20;;;17.40;54.80;;;;;;4958384;28;20685;-70
2022/11/20 06:23:31;;;;;;;2.38;2.08;;;17.40;54.90;;;;;;4957988;28;20602;-70
2022/11/20 06:25:58;;;;;;;2.45;2.00;;;17.50;55.60;;;;;;4957862;28;20205;-70
2022/11/20 06:28:25;;;;;;;2.40;2.20;;;17.40;54.60;;;;;;4958111;28;20217;-70
2022/11/20 06:30:52;;;;;;;2.90;2.00;;;17.40;54.60;;;;;;4958072;28;20713;-70
2022/11/20 06:33:19;;;;;;;2.30;2.10;;;17.40;54.60;;;;;;4958165;28;20664;-70
2022/11/20 06:35:46;;;;;;;2.30;2.10;;;17.40;54.60;;;;;;4958057;28;20198;-70
2022/11/20 06:38:13;;;;;;;2.83;2.13;;;17.40;54.60;;;;;;4958070;28;20616;-70
2022/11/20 06:40:42;;;;;;;2.40;2.10;;;17.40;54.40;;;;;;4958759;28;20222;-70
2022/11/20 06:43:10;;;;;;;2.55;2.00;;;17.40;54.50;;;;;;4957881;28;20237;-70
2022/11/20 06:45:38;;;;;;;2.35;2.15;;;17.40;54.70;;;;;;4957879;28;20202;-70
2022/11/20 06:48:05;;;;;;;2.10;1.90;;;17.30;55.10;;;;;;4958000;28;20661;-70
2022/11/20 06:50:33;;;;;;;2.30;2.10;;;17.30;54.80;;;;;;4958477;28;20222;-70
2022/11/20 06:53:02;;;;;;;2.25;2.05;;;17.30;55.00;;;;;;4957867;28;20206;-70
2022/11/20 06:55:29;;;;;;;2.20;2.00;;;17.30;54.90;;;;;;4957832;28;20253;-70
2022/11/20 06:57:57;;;;;;;2.17;1.98;;;17.30;54.90;;;;;;4957888;28;20206;-70
2022/11/20 07:00:24;;;;;;;2.45;2.20;;;17.20;55.10;;;;;;4957832;28;20289;-70
2022/11/20 07:02:52;;;;;;;2.28;2.08;;;17.20;55.00;;;;;;4957797;28;20205;-70
2022/11/20 07:05:19;;;;;;;2.00;1.80;;;17.20;54.90;;;;;;4957679;28;20205;-70
2022/11/20 07:07:46;;;;;;;2.00;1.90;;;17.20;55.60;;;;;;4957550;28;20276;-70
2022/11/20 07:10:13;;;;;;;2.67;2.00;;;17.20;55.00;;;;;;4957582;28;20225;-70
2022/11/20 07:12:41;;;;;;;2.67;2.00;;;17.20;55.00;;;;;;4957512;28;20681;-70
2022/11/20 07:15:10;;;;;;;2.35;1.90;;;17.20;54.80;;;;;;4957604;28;20198;-70
2022/11/20 07:17:36;;;;;;;2.75;1.83;;;17.20;54.70;;;;;;4957730;28;20225;-70
2022/11/20 07:20:04;;;;;;;2.33;2.13;;;17.20;54.90;;;;;;4957639;28;20202;-70
2022/11/20 07:22:31;;;;;;;2.10;1.90;;;17.20;54.70;;;;;;4974986;28;20264;-70
2022/11/20 07:24:58;;;;;;;2.33;2.08;;;17.20;54.80;;;;;;4958468;28;20633;-70
2022/11/20 07:27:25;;;;;;;2.22;2.03;;;17.20;54.70;;;;;;4974917;28;20190;-70
2022/11/20 07:29:52;;;;;;;2.30;2.10;;;17.20;54.70;;;;;;4958332;28;20321;-70
2022/11/20 07:32:20;;;;;;;2.45;2.00;;;17.20;54.70;;;;;;4957725;28;20222;-70
2022/11/20 07:34:48;;;;;;;2.40;2.20;;;17.20;54.70;;;;;;4957501;28;20194;-70
2022/11/20 07:37:15;;;;;;;2.30;2.10;;;17.30;54.50;;;;;;4961037;28;20198;-70
2022/11/20 07:39:42;;;;;;;2.03;1.83;;;17.30;54.50;;;;;;4961167;28;20198;-70
2022/11/20 07:42:09;;;;;;;2.47;1.90;;;17.30;54.50;;;;;;4961296;28;20321;-70
2022/11/20 07:44:39;;;;;;;2.33;1.90;;;17.30;54.50;;;;;;4961333;28;20206;-70
2022/11/20 07:47:06;;;;;;;2.88;2.13;;;17.40;54.50;;;;;;4960997;28;20330;-70
2022/11/20 07:49:35;;;;;;;2.00;1.80;;;17.30;54.50;;;;;;4961185;28;20218;-70
2022/11/20 07:52:02;;;;;;;1.95;1.77;;;17.40;54.50;;;;;;4960962;28;20417;-70
2022/11/20 07:54:29;;;;;;;1.90;1.80;;;17.40;54.60;;;;;;4961013;28;20206;-70
2022/11/20 07:56:58;;;;;;;2.42;1.80;;;17.40;54.60;;;;;;4960963;28;20226;-70
2022/11/20 07:59:25;;;;;;;1.80;1.70;;;17.40;54.40;;;;;;4960818;28;20194;-70
2022/11/20 08:01:52;;;;;;;2.63;1.83;;;17.40;54.40;;;;;;4960845;28;20316;-70
2022/11/20 08:04:20;;;;;;;1.98;1.70;;;17.40;54.60;;;;;;4960914;28;20293;-70
2022/11/20 08:06:49;;;;;;;1.85;1.73;;;17.40;54.60;;;;;;4960726;28;20202;-70
2022/11/20 08:09:16;;;;;;;2.05;1.85;;;17.40;54.60;;;;;;4960615;28;20777;-70
2022/11/20 08:14:24;;;;;;;1.92;1.70;;;17.40;54.70;;;;;;4939891;28;20200;-70
2022/11/20 08:16:51;;;;;;;3.10;1.88;;;17.40;54.50;;;;;;4977870;28;20190;-70
2022/11/20 08:19:19;;;;;;;2.58;1.70;;;17.40;54.60;;;;;;4960370;28;20627;-70
2022/11/20 08:21:46;;;;;;;1.92;1.63;;;17.40;54.60;;;;;;4960871;28;20218;-70
2022/11/20 08:24:14;;;;;;;1.83;1.73;;;17.40;54.50;;;;;;4960518;28;20232;-70
2022/11/20 08:26:41;;;;;;;1.60;1.50;;;17.40;54.60;;;;;;4961447;28;20195;-70
2022/11/20 08:29:08;;;;;;;1.80;1.70;;;17.40;54.40;;;;;;4960631;28;20268;-70
2022/11/20 08:31:36;;;;;;;1.67;1.55;;;17.50;54.50;;;;;;4960459;28;20272;-71
2022/11/20 08:34:03;;;;;;;2.42;1.60;;;17.50;54.50;;;;;;4961345;28;20213;-70
2022/11/20 08:36:33;;;;;;;1.75;1.65;;;17.50;54.60;;;;;;4961497;28;20669;-70
2022/11/20 08:39:00;;;;;;;2.35;1.50;;;17.50;54.40;;;;;;4978007;28;20273;-70
2022/11/20 08:41:32;;;;;;;1.60;1.50;;;17.50;54.40;;;;;;4961157;28;20228;-70
2022/11/20 08:44:00;;;;;;;1.65;1.52;;;17.70;54.70;;;;;;4962591;28;20198;-70
2022/11/20 08:46:28;;;;;;;2.47;1.55;;;17.60;54.40;;;;;;4962249;28;20204;-70
2022/11/20 08:48:55;;;;;;;1.80;1.70;;;17.70;54.30;;;;;;4960827;28;20202;-70
2022/11/20 08:51:22;;;;;;;1.92;1.80;;;17.70;54.40;;;;;;4978087;28;20225;-70
2022/11/20 08:53:49;;;;;;;1.85;1.70;;;17.80;54.40;;;;;;4960444;28;20202;-70
2022/11/20 08:56:17;;;;;;;2.28;1.85;;;17.80;54.10;;;;;;4977697;28;20274;-70
2022/11/20 08:58:46;;;;;;;1.90;1.70;;;17.80;54.10;;;;;;4960269;28;20202;-70
2022/11/20 09:01:13;;;;;;;2.17;1.60;;;17.90;54.20;;;;;;4959955;28;20226;-70
2022/11/20 09:03:40;;;;;;;1.98;1.85;;;17.90;54.20;;;;;;4944024;28;20198;-70
2022/11/20 09:06:07;;;;;;;1.95;1.60;;;18.00;54.00;;;;;;4959833;28;20289;-70
2022/11/20 09:08:35;;;;;;;1.60;1.50;;;18.00;53.90;;;;;;4959882;28;20659;-70
2022/11/20 09:11:03;;;;;;;1.85;1.67;;;18.10;54.00;;;;;;4959617;28;20364;-70
2022/11/20 09:13:30;;;;;;;2.03;1.73;;;18.20;54.10;;;;;;4959814;28;20293;-70
2022/11/20 09:15:59;;;;;;;1.92;1.73;;;18.20;53.70;;;;;;4977164;28;20197;-70
2022/11/20 09:18:27;;;;;;;1.67;1.58;;;18.20;53.60;;;;;;4959648;28;20209;-70
2022/11/20 09:20:57;;;;;;;1.55;1.45;;;18.30;53.70;;;;;;4959823;28;20222;-70
2022/11/20 09:23:25;;;;;;;1.65;1.55;;;18.30;53.70;;;;;;4959864;28;20278;-70
2022/11/20 09:25:55;;;;;;;1.98;1.60;;;18.30;53.50;;;;;;4944289;28;20221;-70
2022/11/20 09:28:22;;;;;;;1.73;1.63;;;18.30;53.70;;;;;;4960149;28;20206;-70
2022/11/20 09:30:49;;;;;;;1.92;1.73;;;18.30;53.50;;;;;;4961000;28;20229;-70
2022/11/20 09:33:18;;;;;;;1.88;1.70;;;18.30;53.50;;;;;;4960635;28;20209;-70
2022/11/20 09:35:45;;;;;;;1.70;1.60;;;18.30;53.30;;;;;;4960218;28;20209;-70
2022/11/20 09:38:12;;;;;;;1.52;1.42;;;18.40;53.30;;;;;;4960741;28;20198;-70
2022/11/20 09:40:41;;;;;;;1.73;1.63;;;18.30;53.30;;;;;;4960707;28;20220;-70
2022/11/20 09:43:10;;;;;;;1.58;1.48;;;18.40;53.70;;;;;;4959861;28;20194;-70
2022/11/20 09:45:46;;;;;;;2.78;1.70;;;18.40;53.30;;;;;;4977349;28;20204;-70
2022/11/20 09:48:22;;;;;;;1.50;1.40;;;18.40;53.30;;;;;;4960413;28;20218;-70
2022/11/20 09:50:50;;;;;;;1.50;1.40;;;18.40;53.30;;;;;;4976433;28;20221;-70
2022/11/20 09:53:22;;;;;;;1.50;1.40;;;18.40;53.30;;;;;;4959140;28;20672;-70
2022/11/20 09:55:49;;;;;;;1.40;1.30;;;18.40;53.30;;;;;;4958934;28;20226;-70
2022/11/20 09:58:19;;;;;;;2.17;1.40;;;18.40;53.30;;;;;;4958855;28;20652;-70
2022/11/20 10:00:46;;;;;;;1.88;1.40;;;18.40;53.50;;;;;;4959521;28;20222;-70
2022/11/20 10:03:15;;;;;;;1.40;1.30;;;18.30;53.30;;;;;;4976008;28;20216;-70
2022/11/20 10:05:45;;;;;;;1.35;1.25;;;18.30;53.50;;;;;;4958723;28;20284;-70
2022/11/20 10:08:15;;;;;;;1.55;1.45;;;18.40;53.30;;;;;;4958544;28;20293;-70
2022/11/20 10:10:44;;;;;;;2.92;1.30;;;18.40;53.30;;;;;;4958555;28;20230;-70
2022/11/20 10:13:34;;;;;;;1.55;1.45;;;18.40;53.00;;;;;;4958589;28;20210;-70
2022/11/20 10:16:09;;;;;;;1.50;1.40;;;18.40;53.30;;;;;;4977453;28;20178;-70
2022/11/20 10:18:44;;;;;;;1.60;1.50;;;18.40;53.60;;;;;;4958422;28;20653;-70
2022/11/20 10:21:15;;;;;;;2.35;1.60;;;18.40;53.50;;;;;;4975658;28;20205;-70
2022/11/20 10:24:01;;;;;;;3.20;1.40;;;18.30;53.50;;;;;;4958650;28;20288;-70
2022/11/20 10:26:32;;;;;;;76.22;45.90;;;18.30;54.30;;;;;;4959178;28;20209;-70
2022/11/20 10:29:08;;;;;;;427.70;290.85;;;18.30;54.50;;;;;;4958716;28;20186;-70
2022/11/20 10:31:36;;;;;;;460.87;354.13;;;18.30;58.70;;;;;;4958736;28;20529;-70
2022/11/20 10:34:07;;;;;;;144.02;102.13;;;18.30;59.30;;;;;;4975987;28;20676;-70
2022/11/20 10:36:38;;;;;;;113.30;75.97;;;18.40;57.20;;;;;;4975807;28;20229;-70
2022/11/20 10:39:07;;;;;;;94.40;66.15;;;18.40;56.30;;;;;;4959281;28;20316;-70
2022/11/20 10:41:38;;;;;;;88.05;59.00;;;18.40;56.10;;;;;;4958192;28;20222;-70
2022/11/20 10:44:06;;;;;;;70.43;51.25;;;18.40;56.00;;;;;;4958526;28;20670;-70
2022/11/20 10:46:39;;;;;;;74.82;51.58;;;18.40;55.60;;;;;;4958421;28;20190;-70
2022/11/20 10:49:12;;;;;;;67.45;46.65;;;18.50;55.40;;;;;;4957979;28;20236;-70
2022/11/20 10:51:46;;;;;;;71.47;48.60;;;18.50;55.60;;;;;;4957769;28;20322;-70
2022/11/20 10:54:19;;;;;;;62.33;40.78;;;18.50;55.60;;;;;;4942364;28;20201;-70
2022/11/20 10:56:47;;;;;;;57.42;40.15;;;18.50;55.20;;;;;;4975270;28;20642;-70
2022/11/20 10:59:45;;;;;;;54.90;38.53;;;18.50;54.70;;;;;;4957676;28;20573;-70
2022/11/20 11:02:17;;;;;;;51.88;36.30;;;18.50;54.90;;;;;;4943604;28;20367;-70
2022/11/20 11:04:45;;;;;;;51.20;35.53;;;18.50;54.80;;;;;;4957942;28;20202;-70
2022/11/20 11:07:15;;;;;;;49.03;32.75;;;18.40;54.60;;;;;;4957713;28;20236;-70
2022/11/20 11:09:43;;;;;;;45.92;31.02;;;18.50;54.70;;;;;;4957842;28;20710;-70
2022/11/20 11:12:11;;;;;;;44.28;31.23;;;18.40;54.40;;;;;;4957470;28;20221;-70
2022/11/20 11:14:46;;;;;;;43.60;32.92;;;18.50;54.60;;;;;;4975096;28;20194;-70
2022/11/20 11:17:22;;;;;;;46.95;31.15;;;18.50;54.80;;;;;;4957765;28;20208;-71
2022/11/20 11:19:59;;;;;;;40.15;27.85;;;18.50;55.10;;;;;;4957942;28;20209;-70
2022/11/20 11:22:27;;;;;;;45.05;29.92;;;18.50;54.30;;;;;;4957848;28;20218;-70
2022/11/20 11:24:54;;;;;;;38.97;27.27;;;18.50;54.50;;;;;;4957866;28;20205;-70
2022/11/20 11:27:21;;;;;;;42.20;27.85;;;18.50;54.30;;;;;;4958077;28;20198;-70
2022/11/20 11:29:48;;;;;;;39.58;27.83;;;18.50;54.50;;;;;;4942686;28;20571;-70
2022/11/20 11:32:16;;;;;;;35.67;24.67;;;18.50;54.40;;;;;;4958164;28;20307;-70
2022/11/20 11:34:43;;;;;;;33.22;24.27;;;18.50;54.40;;;;;;4957760;28;20206;-70
2022/11/20 11:37:13;;;;;;;37.78;25.80;;;18.50;54.60;;;;;;4958610;28;20205;-69
2022/11/20 11:39:42;;;;;;;28.17;22.38;;;18.60;54.70;;;;;;4958817;28;20541;-69
2022/11/20 11:42:10;;;;;;;33.17;24.00;;;18.60;54.40;;;;;;4957008;28;20442;-69
2022/11/20 11:47:24;;;;;;;31.50;21.65;;;18.70;54.00;;;;;;4957952;28;20241;-69
2022/11/20 11:50:01;;;;;;;31.13;21.63;;;18.80;54.00;;;;;;4957457;28;20198;-69
2022/11/20 11:52:28;;;;;;;32.42;21.67;;;18.80;53.90;;;;;;4957491;28;20253;-69
2022/11/20 11:54:57;;;;;;;33.70;21.73;;;18.80;54.00;;;;;;4957265;28;20551;-70
2022/11/20 11:57:27;;;;;;;29.15;20.45;;;18.90;54.20;;;;;;4957214;28;20579;-70
2022/11/20 12:00:00;;;;;;;30.17;20.17;;;18.90;54.10;;;;;;4957934;28;20284;-70
2022/11/20 12:02:36;;;;;;;27.60;19.67;;;19.00;54.00;;;;;;4957958;28;20217;-70
2022/11/20 12:05:09;;;;;;;26.33;19.48;;;19.00;53.90;;;;;;4957995;28;20199;-70
2022/11/20 12:07:40;;;;;;;26.98;18.70;;;19.10;54.10;;;;;;4957122;28;20245;-70
2022/11/20 12:10:13;;;;;;;26.77;17.55;;;19.10;53.90;;;;;;4957125;28;20214;-70
2022/11/20 12:12:42;;;;;;;23.88;17.08;;;19.10;53.80;;;;;;4957120;28;20206;-70
2022/11/20 12:15:11;;;;;;;21.08;16.35;;;19.10;53.80;;;;;;4957393;28;20203;-70
2022/11/20 12:17:38;;;;;;;28.33;18.48;;;19.20;53.90;;;;;;4974851;28;20190;-70
2022/11/20 12:20:11;;;;;;;25.20;17.77;;;19.20;54.80;;;;;;4957539;28;20213;-70
2022/11/20 12:22:42;;;;;;;18.00;12.30;;;19.20;53.70;;;;;;4959007;28;20214;-70
2022/11/20 12:25:11;;;;;;;11.57;8.25;;;19.20;52.70;;;;;;4960677;28;20603;-70
2022/11/20 12:27:55;;;;;;;11.80;7.65;;;19.20;50.70;;;;;;4960461;28;20680;-70
2022/11/20 12:30:24;;;;;;;11.77;8.55;;;19.10;50.70;;;;;;4961780;28;20218;-70
2022/11/20 12:33:04;;;;;;;10.43;7.55;;;19.10;51.20;;;;;;4962410;28;20225;-70
2022/11/20 12:35:47;;;;;;;14.25;9.05;;;19.20;52.00;;;;;;4946901;28;20194;-70
2022/11/20 12:38:41;;;;;;;10.88;8.43;;;19.20;52.00;;;;;;4960595;28;20198;-70
2022/11/20 12:41:13;;;;;;;10.98;7.45;;;19.10;52.00;;;;;;4956952;28;20681;-70
2022/11/20 12:46:29;;;;;;;14.60;9.25;;;19.10;51.90;;;;;;4960190;28;20651;-70
2022/11/20 12:49:06;;;;;;;12.35;7.50;;;19.20;52.30;;;;;;4945203;28;20202;-70
2022/11/20 12:51:46;;;;;;;12.35;8.20;;;19.10;51.80;;;;;;4978020;28;20221;-70
2022/11/20 12:54:32;;;;;;;12.65;8.02;;;19.10;52.00;;;;;;4960942;28;20198;-70
2022/11/20 12:57:03;;;;;;;13.02;7.82;;;19.10;51.80;;;;;;4960001;28;20208;-70
2022/11/20 12:59:40;;;;;;;11.68;7.65;;;19.10;52.10;;;;;;4960102;28;20210;-70
2022/11/20 13:02:15;;;;;;;11.68;7.65;;;19.10;52.30;;;;;;4959659;28;20695;-70
2022/11/20 13:04:50;;;;;;;10.75;6.90;;;19.10;52.10;;;;;;4959894;28;20192;-70
2022/11/20 13:07:18;;;;;;;16.92;9.05;;;19.10;51.90;;;;;;4959971;28;20249;-70